Dear Valued Visitor,

We have noticed that you are using an ad blocker software.

Although advertisements on the web pages may degrade your experience, our business certainly depends on them and we can only keep providing you high-quality research based articles as long as we can display ads on our pages.

To view this article, you can disable your ad blocker and refresh this page or simply login.

We only allow registered users to use ad blockers. You can sign up for free by clicking here or you can login if you are already a member.

Cytokinetics Inc (CYTK) - Insider Trading

Insider Trading: Purchases
Insider Price Amount Relationship Remaining Holdings Date Form 4
$8.57 6,000 Director 6,250 2019-11-19 Filing
$9.52 8,506 Large Shareholder 499,312 2019-12-11 Filing
$9.52 49,804 Large Shareholder 2,861,622 2019-12-11 Filing
$9.52 60,103 Large Shareholder 3,617,776 2019-12-11 Filing
$9.40 15,030 Large Shareholder 490,806 2019-12-10 Filing
$9.40 95,100 Large Shareholder 2,811,818 2019-12-10 Filing
$9.40 113,529 Large Shareholder 3,557,673 2019-12-10 Filing
$6.95 1,000 Director 1,850 2015-08-31 Filing
$6.48 200 Director 30,000 2015-08-20 Filing
$6.60 700 Director 29,800 2015-08-20 Filing
$6.60 4,980 Director 29,100 2015-08-20 Filing
$6.46 420 Director 24,120 2015-08-20 Filing
$6.59 300 Director 23,700 2015-08-20 Filing
$6.50 700 Director 23,400 2015-08-20 Filing
$6.46 100 Director 22,700 2015-08-20 Filing
$6.47 900 Director 22,600 2015-08-20 Filing
$6.48 600 Director 21,700 2015-08-20 Filing
$6.47 1,100 Director 21,100 2015-08-20 Filing
$5.69 1,192 Director 20,000 2015-05-06 Filing
$5.71 3,808 Director 18,808 2015-05-06 Filing